Time;durP1;ratioP1;P1;durP2;ratioP2;P2;SDS_P1;SDS_P2;PMS_P1;PMS_P2;Temp;Humidity;BMP_temperature;BMP_pressure;BME280_temperature;BME280_humidity;BME280_pressure;Samples;Min_cycle;Max_cycle;Signal;HPM_P1;HPM_P2
2023/06/01 00:02:22;;;;;;;7.03;4.57;;;16.70;99.90;;;;;;5027065;28;20470;-69
2023/06/01 00:04:49;;;;;;;7.40;4.93;;;16.70;99.90;;;;;;5027952;28;20433;-69
2023/06/01 00:07:15;;;;;;;7.73;4.80;;;16.60;99.90;;;;;;5027886;28;21571;-69
2023/06/01 00:09:41;;;;;;;7.70;4.97;;;16.50;99.90;;;;;;5028191;28;20926;-70
2023/06/01 00:12:08;;;;;;;7.23;5.17;;;16.50;99.90;;;;;;5028274;28;20457;-69
2023/06/01 00:14:33;;;;;;;8.83;5.60;;;16.50;99.90;;;;;;5027650;28;20183;-69
2023/06/01 00:16:59;;;;;;;9.10;4.87;;;16.40;99.90;;;;;;5028159;28;20477;-69
2023/06/01 00:19:26;;;;;;;6.47;4.50;;;16.40;99.90;;;;;;5028333;28;20174;-69
2023/06/01 00:21:53;;;;;;;10.63;5.17;;;16.30;99.90;;;;;;5026999;28;20194;-69
2023/06/01 00:24:20;;;;;;;6.03;4.90;;;16.30;99.90;;;;;;5028151;28;20417;-69
2023/06/01 00:26:47;;;;;;;6.87;5.37;;;16.20;99.90;;;;;;5028208;28;20437;-69
2023/06/01 00:29:13;;;;;;;5.83;4.70;;;16.20;99.90;;;;;;5028493;28;20451;-69
2023/06/01 00:31:39;;;;;;;9.10;5.40;;;16.20;99.90;;;;;;5034616;28;20547;-69
2023/06/01 00:34:04;;;;;;;6.97;5.20;;;16.10;99.90;;;;;;5027866;28;20504;-68
2023/06/01 00:36:31;;;;;;;5.87;5.00;;;16.00;99.90;;;;;;5027946;28;20544;-69
2023/06/01 00:39:01;;;;;;;11.07;5.63;;;16.10;99.90;;;;;;5014860;28;20237;-69
2023/06/01 00:41:28;;;;;;;7.87;5.20;;;16.10;99.90;;;;;;5008365;28;20414;-69
2023/06/01 00:43:54;;;;;;;7.10;4.67;;;16.10;99.90;;;;;;5006814;28;21209;-70
2023/06/01 00:46:19;;;;;;;5.90;4.33;;;16.10;99.90;;;;;;5008510;28;20487;-68
2023/06/01 00:48:46;;;;;;;7.10;4.33;;;16.00;99.90;;;;;;5008220;28;20215;-69
2023/06/01 00:51:14;;;;;;;7.30;4.77;;;15.90;99.90;;;;;;5008360;28;20203;-68
2023/06/01 00:53:41;;;;;;;6.07;4.30;;;15.90;99.90;;;;;;5006642;28;20414;-69
2023/06/01 00:56:07;;;;;;;6.73;4.83;;;15.80;99.90;;;;;;5008317;28;20787;-70
2023/06/01 00:58:33;;;;;;;6.80;4.60;;;15.80;99.90;;;;;;5008001;28;20779;-68
2023/06/01 01:00:59;;;;;;;6.50;4.90;;;15.70;99.90;;;;;;5011448;28;20420;-69
2023/06/01 01:03:25;;;;;;;7.57;4.80;;;15.60;99.90;;;;;;5011914;28;20298;-69
2023/06/01 01:06:02;;;;;;;6.90;5.67;;;15.60;99.90;;;;;;5025408;28;20512;-69
2023/06/01 01:08:46;;;;;;;8.13;4.93;;;15.50;99.90;;;;;;5031397;28;20421;-69
2023/06/01 01:11:26;;;;;;;9.37;6.33;;;15.50;99.90;;;;;;5031556;28;20459;-69
2023/06/01 01:14:27;;;;;;;10.80;5.43;;;15.40;99.90;;;;;;5031353;28;20416;-69
2023/06/01 01:17:32;;;;;;;7.80;5.77;;;15.40;99.90;;;;;;5031393;28;20520;-69
2023/06/01 01:20:15;;;;;;;8.17;5.37;;;15.30;99.90;;;;;;5031430;28;20488;-69
2023/06/01 01:22:57;;;;;;;7.37;5.80;;;15.20;99.90;;;;;;5031356;28;20429;-70
2023/06/01 01:25:31;;;;;;;8.40;6.10;;;15.20;99.90;;;;;;5031379;28;20730;-69
2023/06/01 01:28:27;;;;;;;6.30;4.90;;;15.10;99.90;;;;;;5031007;28;20428;-69
2023/06/01 01:30:55;;;;;;;9.83;5.27;;;15.20;99.90;;;;;;5031153;28;20941;-69
2023/06/01 01:33:22;;;;;;;9.03;5.93;;;15.10;99.90;;;;;;5030897;28;20894;-69
2023/06/01 01:35:50;;;;;;;8.27;5.87;;;15.10;99.90;;;;;;5031238;28;20882;-69
2023/06/01 01:38:16;;;;;;;9.20;5.73;;;15.00;99.90;;;;;;5029585;28;20950;-69
2023/06/01 01:40:41;;;;;;;9.33;6.60;;;14.90;99.90;;;;;;5029852;28;20459;-69
2023/06/01 01:43:08;;;;;;;10.13;6.10;;;14.90;99.90;;;;;;5030826;28;20190;-69
2023/06/01 01:45:34;;;;;;;7.20;6.50;;;14.70;99.90;;;;;;5030911;28;20179;-69
2023/06/01 01:48:22;;;;;;;9.43;5.77;;;14.70;99.90;;;;;;5029388;28;20476;-69
2023/06/01 01:50:52;;;;;;;7.40;5.90;;;14.70;99.90;;;;;;5030600;28;20464;-69
2023/06/01 01:53:19;;;;;;;9.40;7.10;;;14.60;99.90;;;;;;5030596;28;20409;-69
2023/06/01 01:55:48;;;;;;;7.83;6.40;;;14.40;99.90;;;;;;5030793;28;20406;-70
2023/06/01 01:58:15;;;;;;;10.33;6.93;;;14.40;99.90;;;;;;5029028;28;20429;-68
2023/06/01 02:00:42;;;;;;;10.30;7.10;;;14.40;99.90;;;;;;5030552;28;20424;-69
2023/06/01 02:03:17;;;;;;;8.50;6.87;;;14.50;99.90;;;;;;5030433;28;20417;-68
2023/06/01 02:05:44;;;;;;;9.93;6.70;;;14.40;99.90;;;;;;5029646;28;20436;-69
2023/06/01 02:08:10;;;;;;;10.17;7.10;;;14.40;99.90;;;;;;5030252;28;20958;-68
2023/06/01 02:10:37;;;;;;;11.00;7.43;;;14.40;99.90;;;;;;5029884;28;21016;-69
2023/06/01 02:13:03;;;;;;;9.50;7.37;;;14.40;99.90;;;;;;5030413;28;20423;-69
2023/06/01 02:15:29;;;;;;;11.23;7.43;;;14.30;99.90;;;;;;5030522;28;20413;-69
2023/06/01 02:17:54;;;;;;;12.77;7.23;;;14.40;99.90;;;;;;5030189;28;21003;-69
2023/06/01 02:20:20;;;;;;;10.23;6.73;;;14.20;99.90;;;;;;5030017;28;20174;-69
2023/06/01 02:22:46;;;;;;;13.87;8.67;;;14.10;99.90;;;;;;5030342;28;20170;-68
2023/06/01 02:25:11;;;;;;;14.40;9.53;;;14.00;99.90;;;;;;5029970;28;20181;-69
2023/06/01 02:27:37;;;;;;;15.60;9.53;;;14.00;99.90;;;;;;5030037;28;20225;-69
2023/06/01 02:30:06;;;;;;;16.03;9.07;;;13.90;99.90;;;;;;5029741;28;20185;-69
2023/06/01 02:32:32;;;;;;;13.57;8.40;;;14.00;99.90;;;;;;5029069;28;20668;-69
2023/06/01 02:34:58;;;;;;;15.70;9.60;;;13.80;99.90;;;;;;5028362;28;20617;-69
2023/06/01 02:37:24;;;;;;;14.33;8.87;;;13.80;99.90;;;;;;5028501;28;20973;-68
2023/06/01 02:39:49;;;;;;;10.83;8.50;;;13.70;99.90;;;;;;5029911;28;20181;-69
2023/06/01 02:42:15;;;;;;;16.60;8.83;;;13.70;99.90;;;;;;5029993;28;20179;-68
2023/06/01 02:44:41;;;;;;;15.30;9.30;;;13.70;99.90;;;;;;5028377;28;20217;-69
2023/06/01 02:47:07;;;;;;;13.63;8.80;;;13.60;99.90;;;;;;5029709;28;20198;-69
2023/06/01 02:49:33;;;;;;;14.97;10.43;;;13.50;99.90;;;;;;5029461;28;20196;-69
2023/06/01 02:51:58;;;;;;;15.07;9.30;;;13.40;99.90;;;;;;5029559;28;20547;-69
2023/06/01 02:54:24;;;;;;;15.37;9.30;;;13.30;99.90;;;;;;5029496;28;20703;-70
2023/06/01 02:56:50;;;;;;;13.70;8.60;;;13.40;99.90;;;;;;5029279;28;20194;-68
2023/06/01 02:59:15;;;;;;;13.23;9.00;;;13.40;99.90;;;;;;5029577;28;20523;-68
2023/06/01 03:01:41;;;;;;;14.07;10.00;;;13.40;99.90;;;;;;5029606;28;20217;-69
2023/06/01 03:04:07;;;;;;;18.47;10.47;;;13.30;99.90;;;;;;5029186;28;20676;-69
2023/06/01 03:06:37;;;;;;;15.37;10.40;;;13.40;99.90;;;;;;5028098;28;20603;-68
2023/06/01 03:09:12;;;;;;;16.23;11.03;;;13.40;99.90;;;;;;5029377;28;20528;-68
2023/06/01 03:11:40;;;;;;;17.70;11.60;;;13.50;99.90;;;;;;5029270;28;20456;-68
2023/06/01 03:14:06;;;;;;;18.37;11.70;;;13.40;99.90;;;;;;5029116;28;20513;-69
2023/06/01 03:16:31;;;;;;;17.80;11.70;;;13.40;99.90;;;;;;5029120;28;20584;-69
2023/06/01 03:18:58;;;;;;;17.60;11.13;;;13.40;99.90;;;;;;5029116;28;20163;-69
2023/06/01 03:21:24;;;;;;;18.90;12.27;;;13.40;99.90;;;;;;5027557;28;20182;-69
2023/06/01 03:23:50;;;;;;;19.10;12.10;;;13.30;99.90;;;;;;5027071;28;20499;-69
2023/06/01 03:26:18;;;;;;;20.60;12.30;;;13.40;99.90;;;;;;5028980;28;20673;-69
2023/06/01 03:28:44;;;;;;;21.80;13.83;;;13.20;99.90;;;;;;5028866;28;20405;-69
2023/06/01 03:31:11;;;;;;;18.90;12.03;;;13.10;99.90;;;;;;5028590;28;20464;-69
2023/06/01 03:33:37;;;;;;;18.20;12.20;;;13.00;99.90;;;;;;5028819;28;20414;-69
2023/06/01 03:36:04;;;;;;;19.60;12.70;;;13.10;99.90;;;;;;5028622;28;20413;-69
2023/06/01 03:38:30;;;;;;;19.93;13.37;;;13.10;99.90;;;;;;5028763;28;20506;-69
2023/06/01 03:40:56;;;;;;;15.80;12.23;;;13.00;99.90;;;;;;5028718;28;20527;-69
2023/06/01 03:43:22;;;;;;;18.23;12.20;;;13.00;99.90;;;;;;5028686;28;20408;-69
2023/06/01 03:45:47;;;;;;;19.57;12.40;;;13.00;99.90;;;;;;5028899;28;20475;-69
2023/06/01 03:48:13;;;;;;;17.90;12.17;;;12.90;99.90;;;;;;5028483;28;20255;-69
2023/06/01 03:50:39;;;;;;;20.70;13.00;;;12.90;99.90;;;;;;5028304;28;20217;-69
2023/06/01 03:53:05;;;;;;;17.97;12.73;;;12.90;99.90;;;;;;5028643;28;20196;-69
2023/06/01 03:55:30;;;;;;;20.00;13.17;;;12.90;99.90;;;;;;5028538;28;20269;-68
2023/06/01 03:57:57;;;;;;;19.13;12.57;;;12.80;99.90;;;;;;5028416;28;20198;-69
2023/06/01 04:00:23;;;;;;;21.83;13.57;;;12.70;99.90;;;;;;5028470;28;20337;-69
2023/06/01 04:02:58;;;;;;;22.13;14.30;;;12.60;99.90;;;;;;5027124;28;20413;-69
2023/06/01 04:05:27;;;;;;;19.60;12.20;;;12.60;99.90;;;;;;5027538;28;20785;-68
2023/06/01 04:07:54;;;;;;;19.10;13.00;;;12.60;99.90;;;;;;5028295;28;20461;-68
2023/06/01 04:10:20;;;;;;;18.83;12.63;;;12.50;99.90;;;;;;5028102;28;20412;-68
2023/06/01 04:12:51;;;;;;;19.47;13.60;;;12.50;99.90;;;;;;5028615;28;20410;-69
2023/06/01 04:15:19;;;;;;;16.60;12.43;;;12.30;99.90;;;;;;5028372;28;20421;-69
2023/06/01 04:17:44;;;;;;;20.40;12.27;;;12.40;99.90;;;;;;5028197;28;20809;-68
2023/06/01 04:20:12;;;;;;;21.73;12.67;;;12.50;99.90;;;;;;5028267;28;20417;-68
2023/06/01 04:22:40;;;;;;;17.87;13.67;;;12.40;99.90;;;;;;5028158;28;20280;-68
2023/06/01 04:25:11;;;;;;;17.67;13.70;;;12.40;99.90;;;;;;5028225;28;20487;-68
2023/06/01 04:27:37;;;;;;;18.10;12.30;;;12.50;99.90;;;;;;5028085;28;20528;-68
2023/06/01 04:30:07;;;;;;;18.30;13.50;;;12.50;99.90;;;;;;5028140;28;20487;-68
2023/06/01 04:32:40;;;;;;;15.47;11.63;;;12.50;99.90;;;;;;5028219;28;20464;-69
2023/06/01 04:35:07;;;;;;;16.97;13.50;;;12.60;99.90;;;;;;5031701;28;20409;-68
2023/06/01 04:37:39;;;;;;;20.43;14.63;;;12.60;99.90;;;;;;5030529;28;20535;-69
2023/06/01 04:40:09;;;;;;;29.63;18.17;;;12.60;99.90;;;;;;5032102;28;20443;-69
2023/06/01 04:42:38;;;;;;;25.50;17.90;;;12.60;99.90;;;;;;5032114;28;20413;-68
2023/06/01 04:45:07;;;;;;;25.63;17.70;;;12.60;99.90;;;;;;5031887;28;20906;-69
2023/06/01 04:47:36;;;;;;;29.97;19.73;;;12.70;99.90;;;;;;5031847;28;20439;-69
2023/06/01 04:50:03;;;;;;;27.50;18.63;;;12.70;99.90;;;;;;5031971;28;20893;-68
2023/06/01 04:52:28;;;;;;;25.90;17.80;;;12.60;99.90;;;;;;5027983;28;20453;-69
2023/06/01 04:54:54;;;;;;;31.80;20.07;;;12.60;99.90;;;;;;5027766;28;21122;-69
2023/06/01 04:57:20;;;;;;;35.43;21.40;;;12.60;99.90;;;;;;5026021;28;20312;-68
2023/06/01 04:59:45;;;;;;;28.67;19.17;;;12.60;99.90;;;;;;5029830;28;20214;-69
2023/06/01 05:02:12;;;;;;;34.17;20.80;;;12.40;99.90;;;;;;5029443;28;20532;-68
2023/06/01 05:04:37;;;;;;;27.97;18.73;;;12.40;99.90;;;;;;5026030;28;20194;-68
2023/06/01 05:07:03;;;;;;;28.43;18.90;;;12.40;99.90;;;;;;5030947;28;20693;-68
2023/06/01 05:09:29;;;;;;;30.13;19.20;;;12.50;99.90;;;;;;5031724;28;20202;-68
2023/06/01 05:11:54;;;;;;;29.30;21.70;;;12.40;99.90;;;;;;5045164;28;20958;-68
2023/06/01 05:14:20;;;;;;;24.67;18.63;;;12.30;99.90;;;;;;5031367;28;20332;-68
2023/06/01 05:16:48;;;;;;;23.37;17.53;;;12.30;99.90;;;;;;5031167;28;20883;-68
2023/06/01 05:19:14;;;;;;;27.00;18.70;;;12.20;99.90;;;;;;5031626;28;20520;-68
2023/06/01 05:21:42;;;;;;;31.77;18.90;;;12.20;99.90;;;;;;5029091;28;20435;-68
2023/06/01 05:24:08;;;;;;;27.57;18.90;;;12.20;99.90;;;;;;5027806;28;20612;-68
2023/06/01 05:26:33;;;;;;;26.77;18.60;;;12.30;99.90;;;;;;5028625;28;20448;-68
2023/06/01 05:28:59;;;;;;;31.27;19.50;;;12.30;99.90;;;;;;5030766;28;20217;-68
2023/06/01 05:31:25;;;;;;;29.23;18.10;;;12.30;99.90;;;;;;5027055;28;20744;-68
2023/06/01 05:33:51;;;;;;;27.10;17.90;;;12.30;99.90;;;;;;5030917;28;20182;-68
2023/06/01 05:36:17;;;;;;;21.50;15.43;;;12.30;99.90;;;;;;5031233;28;20579;-68
2023/06/01 05:38:43;;;;;;;21.93;15.07;;;12.30;99.90;;;;;;5030720;28;20727;-68
2023/06/01 05:41:08;;;;;;;23.57;16.73;;;12.30;99.90;;;;;;5030529;28;20206;-68
2023/06/01 05:43:37;;;;;;;24.07;15.60;;;12.40;99.90;;;;;;5030469;28;20221;-68
2023/06/01 05:46:04;;;;;;;20.80;14.90;;;12.40;99.90;;;;;;5029349;28;20171;-68
2023/06/01 05:48:30;;;;;;;20.60;14.67;;;12.20;99.90;;;;;;5030568;28;20414;-69
2023/06/01 05:50:55;;;;;;;24.03;14.73;;;12.20;99.90;;;;;;5023611;28;20496;-68
2023/06/01 05:53:24;;;;;;;23.70;14.97;;;12.30;99.90;;;;;;5010470;28;20643;-69
2023/06/01 05:55:51;;;;;;;20.07;13.20;;;12.30;99.90;;;;;;5011067;28;20185;-68
2023/06/01 05:58:17;;;;;;;18.93;13.43;;;12.40;99.90;;;;;;5010543;28;20434;-68
2023/06/01 06:00:42;;;;;;;17.00;11.70;;;12.30;99.90;;;;;;5014062;28;20425;-68
2023/06/01 06:03:08;;;;;;;17.97;13.03;;;12.40;99.90;;;;;;5027120;28;20186;-68
2023/06/01 06:05:34;;;;;;;12.90;10.57;;;12.40;99.90;;;;;;5025779;28;20186;-68
2023/06/01 06:08:00;;;;;;;14.67;11.47;;;12.40;99.90;;;;;;5029698;28;20520;-69
2023/06/01 06:10:26;;;;;;;14.93;11.37;;;12.40;99.90;;;;;;5028626;28;20278;-69
2023/06/01 06:12:52;;;;;;;17.33;11.60;;;12.50;99.90;;;;;;5027269;28;21029;-69
2023/06/01 06:15:18;;;;;;;18.27;11.27;;;12.50;99.90;;;;;;5025993;28;20298;-69
2023/06/01 06:17:43;;;;;;;15.27;12.00;;;12.50;99.90;;;;;;5027706;28;20203;-68
2023/06/01 06:20:10;;;;;;;20.27;12.10;;;12.60;99.90;;;;;;5029140;28;20185;-68
2023/06/01 06:22:36;;;;;;;18.77;12.40;;;12.60;99.90;;;;;;5025266;28;20197;-68
2023/06/01 06:25:02;;;;;;;17.57;12.33;;;12.60;99.90;;;;;;5026603;28;20421;-68
2023/06/01 06:27:28;;;;;;;19.70;13.27;;;12.60;99.90;;;;;;5028218;28;20437;-69
2023/06/01 06:29:54;;;;;;;16.40;11.60;;;12.70;99.90;;;;;;5020045;28;20257;-68
2023/06/01 06:32:20;;;;;;;15.23;10.90;;;12.60;99.90;;;;;;5017836;28;20214;-69
2023/06/01 06:34:46;;;;;;;14.60;11.37;;;12.70;99.90;;;;;;5019469;28;20416;-69
2023/06/01 06:37:11;;;;;;;14.73;11.00;;;12.80;99.90;;;;;;5018250;28;20252;-69
2023/06/01 06:39:37;;;;;;;16.00;12.50;;;12.90;99.90;;;;;;5017784;28;20939;-68
2023/06/01 06:42:05;;;;;;;17.50;12.60;;;12.80;99.90;;;;;;5017961;28;20229;-69
2023/06/01 06:44:30;;;;;;;14.80;11.07;;;12.80;99.90;;;;;;5019174;28;20186;-68
2023/06/01 06:46:59;;;;;;;15.23;12.17;;;12.70;99.90;;;;;;5021238;28;20798;-69
2023/06/01 06:49:25;;;;;;;14.90;11.00;;;12.90;99.90;;;;;;5025399;28;20711;-69
2023/06/01 06:51:50;;;;;;;13.27;10.60;;;13.00;99.90;;;;;;5029726;28;20788;-68
2023/06/01 06:54:16;;;;;;;13.97;10.43;;;13.10;99.90;;;;;;5029353;28;20305;-69
2023/06/01 06:56:42;;;;;;;14.03;10.30;;;13.10;99.90;;;;;;5029518;28;20198;-68
2023/06/01 06:59:08;;;;;;;14.50;10.20;;;13.10;99.90;;;;;;5029273;28;20179;-68
2023/06/01 07:01:37;;;;;;;14.73;11.03;;;13.10;99.90;;;;;;5029797;28;20193;-68
2023/06/01 07:04:06;;;;;;;15.23;11.13;;;13.20;99.90;;;;;;5029344;28;20446;-68
2023/06/01 07:06:33;;;;;;;15.53;10.63;;;13.20;99.90;;;;;;5029470;28;20437;-68
2023/06/01 07:08:59;;;;;;;17.10;12.13;;;13.30;99.90;;;;;;5029232;28;20440;-68
2023/06/01 07:11:26;;;;;;;13.77;10.80;;;13.40;99.90;;;;;;5029454;28;20538;-68
2023/06/01 07:13:57;;;;;;;15.87;11.20;;;13.40;99.90;;;;;;5027866;28;20425;-69
2023/06/01 07:16:24;;;;;;;14.73;11.37;;;13.50;99.90;;;;;;5028440;28;20846;-68
2023/06/01 07:18:51;;;;;;;17.50;10.47;;;13.60;99.90;;;;;;5029305;28;20424;-68
2023/06/01 07:21:17;;;;;;;14.97;10.70;;;13.60;99.90;;;;;;5028899;28;20423;-68
2023/06/01 07:23:43;;;;;;;13.37;11.17;;;13.60;99.90;;;;;;5013204;28;20802;-69
2023/06/01 07:26:10;;;;;;;14.07;11.43;;;13.70;99.90;;;;;;5009151;28;20179;-69
2023/06/01 07:28:35;;;;;;;16.07;11.03;;;13.70;99.90;;;;;;5009006;28;20433;-69
2023/06/01 07:31:01;;;;;;;15.43;11.87;;;13.80;99.90;;;;;;5031261;28;20464;-69
2023/06/01 07:33:26;;;;;;;16.23;11.37;;;13.90;99.90;;;;;;5024799;28;20191;-69
2023/06/01 07:35:52;;;;;;;15.03;12.63;;;13.90;99.90;;;;;;5008105;28;20659;-69
2023/06/01 07:38:19;;;;;;;15.07;11.80;;;14.00;99.90;;;;;;5011613;28;20699;-68
2023/06/01 07:40:46;;;;;;;16.10;12.30;;;13.90;99.90;;;;;;5009099;28;20413;-68
2023/06/01 07:43:11;;;;;;;16.57;12.17;;;13.90;99.90;;;;;;5008118;28;20826;-69
2023/06/01 07:45:39;;;;;;;15.77;11.60;;;14.00;99.90;;;;;;5008897;28;20410;-69
2023/06/01 07:48:05;;;;;;;16.80;11.30;;;14.00;99.90;;;;;;5008778;28;20222;-69
2023/06/01 07:50:31;;;;;;;14.87;9.33;;;14.20;99.90;;;;;;5008437;28;20414;-69
2023/06/01 07:52:57;;;;;;;13.37;10.67;;;14.40;99.90;;;;;;5008900;28;20422;-68
2023/06/01 07:55:23;;;;;;;14.80;10.77;;;14.40;99.90;;;;;;5008861;28;20237;-69
2023/06/01 07:57:50;;;;;;;12.37;10.00;;;14.50;99.90;;;;;;5008640;28;20951;-69
2023/06/01 08:00:17;;;;;;;13.00;10.07;;;14.60;99.90;;;;;;5008687;28;20418;-68
2023/06/01 08:02:44;;;;;;;13.37;10.27;;;14.80;99.90;;;;;;5008844;28;20501;-68
2023/06/01 08:05:11;;;;;;;15.47;10.57;;;14.80;99.90;;;;;;5016334;28;20429;-68
2023/06/01 08:07:37;;;;;;;10.50;9.40;;;14.80;99.90;;;;;;5028286;28;20429;-69
2023/06/01 08:10:08;;;;;;;14.90;10.80;;;15.00;99.90;;;;;;5028148;28;20405;-68
2023/06/01 08:12:35;;;;;;;17.60;12.40;;;15.00;99.90;;;;;;5028353;28;20547;-69
2023/06/01 08:15:02;;;;;;;15.20;10.83;;;15.10;99.90;;;;;;5028112;28;20460;-69
2023/06/01 08:17:27;;;;;;;11.57;9.87;;;15.10;99.90;;;;;;5028123;28;20436;-68
2023/06/01 08:19:55;;;;;;;13.57;10.60;;;15.20;99.90;;;;;;5028425;28;20410;-69
2023/06/01 08:22:20;;;;;;;16.23;11.27;;;15.30;99.90;;;;;;5028397;28;20257;-69
2023/06/01 08:24:47;;;;;;;12.43;10.57;;;15.40;99.90;;;;;;5028466;28;20513;-68
2023/06/01 08:27:17;;;;;;;16.53;11.30;;;15.50;99.90;;;;;;5043792;28;20549;-69
2023/06/01 08:29:47;;;;;;;15.80;11.97;;;15.50;99.90;;;;;;5026788;28;20808;-69
2023/06/01 08:32:13;;;;;;;16.70;11.47;;;15.40;99.90;;;;;;5028139;28;20554;-68
2023/06/01 08:34:38;;;;;;;16.83;11.77;;;15.30;99.90;;;;;;5026702;28;20409;-68
2023/06/01 08:37:05;;;;;;;14.23;11.67;;;15.30;99.90;;;;;;5028036;28;20436;-68
2023/06/01 08:39:31;;;;;;;15.57;10.87;;;15.40;99.90;;;;;;5028063;28;20209;-68
2023/06/01 08:42:29;;;;;;;18.67;12.10;;;15.50;99.90;;;;;;5028203;28;20444;-69
2023/06/01 08:44:58;;;;;;;17.17;10.60;;;15.60;99.90;;;;;;5027803;28;20194;-69
2023/06/01 08:47:27;;;;;;;14.43;10.90;;;15.70;99.90;;;;;;5027969;28;20794;-68
2023/06/01 08:49:54;;;;;;;13.30;10.70;;;15.80;99.90;;;;;;5028078;28;20478;-69
2023/06/01 08:52:24;;;;;;;12.83;10.67;;;15.90;99.90;;;;;;5028142;28;20511;-69
2023/06/01 08:54:50;;;;;;;12.73;10.17;;;16.00;99.90;;;;;;5028272;28;20412;-69
2023/06/01 08:57:16;;;;;;;16.00;12.63;;;16.10;99.90;;;;;;5026661;28;20437;-69
2023/06/01 08:59:42;;;;;;;15.30;11.80;;;16.20;99.90;;;;;;5028187;28;20662;-68
2023/06/01 09:02:09;;;;;;;17.87;12.70;;;16.20;99.90;;;;;;5028297;28;20182;-69
2023/06/01 09:04:37;;;;;;;16.13;12.73;;;16.30;99.90;;;;;;5027414;28;20429;-69
2023/06/01 09:07:03;;;;;;;16.93;11.87;;;16.40;99.90;;;;;;5028340;28;20515;-69
2023/06/01 09:09:29;;;;;;;21.60;12.43;;;16.60;99.90;;;;;;5028019;28;20420;-69
2023/06/01 09:12:23;;;;;;;20.57;12.30;;;16.60;99.90;;;;;;5026923;28;20460;-69
2023/06/01 09:14:50;;;;;;;13.63;10.90;;;16.70;99.90;;;;;;5043294;28;20405;-69
2023/06/01 09:17:23;;;;;;;14.33;10.77;;;16.80;99.90;;;;;;5027866;28;20996;-69
2023/06/01 09:19:57;;;;;;;14.47;10.50;;;17.00;99.90;;;;;;5027728;28;21013;-69
2023/06/01 09:22:23;;;;;;;17.80;10.73;;;17.10;99.90;;;;;;5031725;28;20770;-69
2023/06/01 09:24:59;;;;;;;12.83;10.00;;;17.30;99.90;;;;;;5030072;28;20471;-69
2023/06/01 09:27:26;;;;;;;18.40;11.00;;;17.40;99.90;;;;;;5031423;28;20507;-69
2023/06/01 09:29:56;;;;;;;13.03;10.20;;;17.40;99.90;;;;;;5031001;28;20413;-69
2023/06/01 09:32:21;;;;;;;12.20;10.20;;;17.50;99.90;;;;;;5031185;28;20544;-69
2023/06/01 09:34:48;;;;;;;12.97;10.33;;;17.50;99.90;;;;;;5030931;28;20406;-69
2023/06/01 09:37:14;;;;;;;14.07;9.77;;;17.60;99.90;;;;;;5019916;28;20684;-69
2023/06/01 09:39:40;;;;;;;17.33;10.67;;;17.80;99.90;;;;;;5011262;28;20998;-69
2023/06/01 09:42:06;;;;;;;14.37;11.07;;;18.00;99.90;;;;;;5011300;28;20453;-69
2023/06/01 09:44:40;;;;;;;18.13;9.77;;;18.10;99.90;;;;;;5010970;28;20965;-69
2023/06/01 09:47:12;;;;;;;11.40;10.20;;;18.10;99.90;;;;;;5009900;28;20812;-69
2023/06/01 09:49:43;;;;;;;17.87;12.10;;;18.10;99.90;;;;;;5011249;28;20843;-69
2023/06/01 09:52:14;;;;;;;20.47;10.30;;;18.10;99.90;;;;;;5011005;28;20849;-69
2023/06/01 09:54:43;;;;;;;18.43;11.50;;;18.20;99.90;;;;;;5010871;28;20927;-69
2023/06/01 09:57:09;;;;;;;16.27;10.23;;;18.30;99.90;;;;;;5011738;28;20484;-69
2023/06/01 09:59:45;;;;;;;11.77;10.20;;;18.20;99.90;;;;;;5016124;28;20419;-69
2023/06/01 10:02:13;;;;;;;12.90;10.87;;;18.30;99.90;;;;;;5010802;28;20476;-69
2023/06/01 10:04:41;;;;;;;15.63;10.37;;;18.40;99.90;;;;;;5013782;28;20437;-68
2023/06/01 10:07:08;;;;;;;14.07;10.43;;;18.50;99.90;;;;;;5030302;28;20441;-69
2023/06/01 10:09:38;;;;;;;14.63;11.00;;;18.60;99.90;;;;;;5030454;28;20413;-69
2023/06/01 10:12:05;;;;;;;13.53;9.97;;;18.70;99.90;;;;;;5030387;28;20457;-69
2023/06/01 10:14:31;;;;;;;11.87;10.57;;;18.70;99.90;;;;;;5030419;28;20409;-69
2023/06/01 10:16:58;;;;;;;12.10;9.20;;;18.70;99.90;;;;;;5028947;28;20465;-69
2023/06/01 10:19:24;;;;;;;17.53;10.40;;;18.80;99.90;;;;;;5030466;28;20470;-68
2023/06/01 10:21:50;;;;;;;11.40;9.90;;;18.90;99.90;;;;;;5023888;28;20514;-69
2023/06/01 10:24:19;;;;;;;13.57;10.10;;;18.90;99.90;;;;;;5020505;28;20269;-69
2023/06/01 10:27:06;;;;;;;13.03;9.57;;;19.00;99.90;;;;;;5018983;28;20264;-69
2023/06/01 10:29:33;;;;;;;15.33;9.93;;;19.20;99.90;;;;;;5026889;28;20536;-69
2023/06/01 10:31:58;;;;;;;13.87;11.27;;;19.30;99.90;;;;;;5031758;28;20460;-69
2023/06/01 10:34:44;;;;;;;14.30;10.00;;;19.40;99.90;;;;;;5029237;28;20516;-69
2023/06/01 10:37:13;;;;;;;12.63;9.90;;;19.40;99.90;;;;;;5027590;28;20251;-69
2023/06/01 10:39:40;;;;;;;12.53;11.03;;;19.50;99.90;;;;;;5028780;28;20500;-69
2023/06/01 10:42:14;;;;;;;14.33;10.80;;;19.60;99.90;;;;;;5029398;28;20417;-69
2023/06/01 10:44:40;;;;;;;14.03;10.60;;;19.60;99.90;;;;;;5029397;28;20509;-69
2023/06/01 10:47:11;;;;;;;12.40;9.90;;;19.60;99.90;;;;;;5029334;28;20881;-69
2023/06/01 10:49:46;;;;;;;15.43;10.40;;;19.70;99.90;;;;;;5024672;28;20190;-69
2023/06/01 10:52:26;;;;;;;15.07;11.17;;;19.80;99.90;;;;;;5028909;28;20468;-69
2023/06/01 10:54:52;;;;;;;12.90;10.40;;;20.00;99.90;;;;;;5019115;28;20436;-69
2023/06/01 10:57:25;;;;;;;17.03;10.93;;;20.20;99.90;;;;;;5028939;28;20440;-69
2023/06/01 11:00:11;;;;;;;15.73;11.70;;;20.10;99.70;;;;;;5029418;28;20479;-69
2023/06/01 11:02:52;;;;;;;15.43;12.63;;;20.10;99.90;;;;;;5028125;28;20421;-69
2023/06/01 11:05:40;;;;;;;15.00;11.60;;;20.20;98.30;;;;;;5027799;28;20951;-69
2023/06/01 11:08:21;;;;;;;17.60;13.30;;;20.20;99.90;;;;;;5027759;28;20444;-69
2023/06/01 11:10:53;;;;;;;21.43;12.10;;;20.30;99.30;;;;;;5027430;28;20417;-69
2023/06/01 11:13:25;;;;;;;17.07;13.07;;;20.20;99.90;;;;;;5029010;28;20741;-69
2023/06/01 11:16:22;;;;;;;16.73;12.57;;;20.40;99.90;;;;;;5021426;28;20819;-69
2023/06/01 11:19:20;;;;;;;18.93;13.70;;;20.40;99.90;;;;;;5028809;28;20402;-69
2023/06/01 11:21:46;;;;;;;17.80;13.10;;;20.50;99.50;;;;;;5024777;28;20421;-69
2023/06/01 11:24:13;;;;;;;20.03;13.17;;;20.60;99.00;;;;;;5028894;28;20413;-69
2023/06/01 11:26:43;;;;;;;19.10;14.77;;;20.50;99.60;;;;;;5025782;28;20863;-69
2023/06/01 11:29:23;;;;;;;18.50;14.87;;;20.50;99.90;;;;;;5022468;28;20486;-69
2023/06/01 11:31:52;;;;;;;20.20;14.40;;;20.60;99.90;;;;;;5026496;28;20791;-68
2023/06/01 11:34:19;;;;;;;22.33;16.30;;;20.60;99.90;;;;;;5024807;28;20949;-69
2023/06/01 11:36:50;;;;;;;17.63;14.50;;;20.50;99.90;;;;;;5028648;28;20494;-69
2023/06/01 11:39:17;;;;;;;19.73;15.30;;;20.60;99.90;;;;;;5028802;28;20511;-69
2023/06/01 11:41:44;;;;;;;18.77;14.80;;;20.70;99.90;;;;;;5028923;28;20420;-69
2023/06/01 11:44:10;;;;;;;20.27;16.03;;;20.90;99.90;;;;;;5027921;28;20926;-69
2023/06/01 11:46:36;;;;;;;23.27;16.97;;;21.00;99.90;;;;;;5025807;28;20445;-69
2023/06/01 11:49:08;;;;;;;21.00;16.50;;;21.10;99.90;;;;;;5028567;28;20194;-69
2023/06/01 11:51:38;;;;;;;20.40;16.23;;;21.20;99.90;;;;;;5023865;28;20869;-69
2023/06/01 11:54:05;;;;;;;23.13;16.27;;;21.30;99.90;;;;;;5027583;28;20770;-69
2023/06/01 11:56:33;;;;;;;17.13;15.33;;;21.40;99.90;;;;;;5028981;28;21024;-69
2023/06/01 11:59:09;;;;;;;24.90;16.30;;;21.20;99.70;;;;;;5028779;28;20489;-69
2023/06/01 12:01:41;;;;;;;18.27;14.63;;;21.20;99.80;;;;;;5028661;28;20492;-69
2023/06/01 12:04:15;;;;;;;18.33;14.17;;;21.20;99.90;;;;;;5028515;28;20406;-69
2023/06/01 12:06:42;;;;;;;17.60;13.40;;;21.20;99.90;;;;;;5007198;28;20551;-69
2023/06/01 12:09:09;;;;;;;17.03;14.57;;;21.40;99.90;;;;;;5008903;28;20556;-69
2023/06/01 12:11:36;;;;;;;21.97;14.40;;;21.20;99.10;;;;;;5008753;28;21059;-68
2023/06/01 12:14:05;;;;;;;14.37;12.80;;;21.10;99.90;;;;;;5008863;28;20414;-68
2023/06/01 12:16:53;;;;;;;18.67;14.70;;;21.10;99.90;;;;;;5009003;28;20488;-69
2023/06/01 12:19:21;;;;;;;25.57;14.80;;;21.20;99.30;;;;;;5008910;28;20406;-69
2023/06/01 12:21:50;;;;;;;18.83;14.73;;;21.20;99.10;;;;;;5009023;28;20410;-68
2023/06/01 12:24:28;;;;;;;16.00;13.17;;;21.20;99.90;;;;;;5008473;28;20407;-68
2023/06/01 12:26:54;;;;;;;18.43;14.37;;;21.20;99.70;;;;;;5008497;28;20430;-68
2023/06/01 12:29:41;;;;;;;14.73;12.37;;;21.20;99.90;;;;;;5007609;28;20417;-68
2023/06/01 12:32:08;;;;;;;15.27;12.80;;;21.20;99.90;;;;;;5008865;28;20457;-68
2023/06/01 12:34:36;;;;;;;16.53;13.03;;;21.10;99.90;;;;;;5008519;28;21125;-69
2023/06/01 12:37:19;;;;;;;15.20;11.67;;;21.20;99.90;;;;;;5008441;28;20507;-69
2023/06/01 12:39:56;;;;;;;17.27;13.23;;;21.20;99.90;;;;;;5007590;28;20410;-69